sensor_id;sensor_type;location;lat;lon;timestamp;P1;durP1;ratioP1;P2;durP2;ratioP2
30010;SDS011;16851;53.564;8.112;2023-05-14T00:03:03;11.65;;;3.67;;
30010;SDS011;16851;53.564;8.112;2023-05-14T00:08:06;5.00;;;3.90;;
30010;SDS011;16851;53.564;8.112;2023-05-14T00:13:12;7.05;;;3.53;;
30010;SDS011;16851;53.564;8.112;2023-05-14T00:18:14;7.30;;;4.15;;
30010;SDS011;16851;53.564;8.112;2023-05-14T00:23:16;9.98;;;3.80;;
30010;SDS011;16851;53.564;8.112;2023-05-14T00:28:17;6.60;;;3.72;;
30010;SDS011;16851;53.564;8.112;2023-05-14T00:33:22;9.25;;;3.90;;
30010;SDS011;16851;53.564;8.112;2023-05-14T00:38:24;6.82;;;4.30;;
30010;SDS011;16851;53.564;8.112;2023-05-14T00:43:30;6.72;;;4.45;;
30010;SDS011;16851;53.564;8.112;2023-05-14T00:48:34;9.27;;;5.35;;
30010;SDS011;16851;53.564;8.112;2023-05-14T00:53:36;9.38;;;4.90;;
30010;SDS011;16851;53.564;8.112;2023-05-14T00:58:40;7.10;;;4.78;;
30010;SDS011;16851;53.564;8.112;2023-05-14T01:03:42;9.82;;;4.78;;
30010;SDS011;16851;53.564;8.112;2023-05-14T01:14:27;7.10;;;4.50;;
30010;SDS011;16851;53.564;8.112;2023-05-14T01:19:42;6.60;;;4.57;;
30010;SDS011;16851;53.564;8.112;2023-05-14T01:24:52;7.45;;;5.22;;
30010;SDS011;16851;53.564;8.112;2023-05-14T01:35:25;5.53;;;5.03;;
30010;SDS011;16851;53.564;8.112;2023-05-14T01:40:28;8.43;;;5.70;;
30010;SDS011;16851;53.564;8.112;2023-05-14T01:45:34;7.43;;;5.25;;
30010;SDS011;16851;53.564;8.112;2023-05-14T01:50:36;8.43;;;5.20;;
30010;SDS011;16851;53.564;8.112;2023-05-14T01:55:40;6.68;;;5.63;;
30010;SDS011;16851;53.564;8.112;2023-05-14T02:00:46;7.22;;;6.05;;
30010;SDS011;16851;53.564;8.112;2023-05-14T02:05:53;9.18;;;6.05;;
30010;SDS011;16851;53.564;8.112;2023-05-14T02:10:57;9.13;;;6.15;;
30010;SDS011;16851;53.564;8.112;2023-05-14T02:16:04;9.20;;;6.18;;
30010;SDS011;16851;53.564;8.112;2023-05-14T02:21:09;10.93;;;6.40;;
30010;SDS011;16851;53.564;8.112;2023-05-14T02:26:15;8.20;;;5.75;;
30010;SDS011;16851;53.564;8.112;2023-05-14T02:31:17;10.95;;;6.32;;
30010;SDS011;16851;53.564;8.112;2023-05-14T02:36:19;6.85;;;5.80;;
30010;SDS011;16851;53.564;8.112;2023-05-14T02:41:24;9.30;;;6.15;;
30010;SDS011;16851;53.564;8.112;2023-05-14T02:46:29;9.23;;;6.22;;
30010;SDS011;16851;53.564;8.112;2023-05-14T02:51:31;10.82;;;6.50;;
30010;SDS011;16851;53.564;8.112;2023-05-14T02:56:35;9.93;;;6.53;;
30010;SDS011;16851;53.564;8.112;2023-05-14T03:01:37;8.90;;;6.80;;
30010;SDS011;16851;53.564;8.112;2023-05-14T03:06:39;11.55;;;7.10;;
30010;SDS011;16851;53.564;8.112;2023-05-14T03:11:41;14.65;;;7.35;;
30010;SDS011;16851;53.564;8.112;2023-05-14T03:16:45;13.02;;;7.43;;
30010;SDS011;16851;53.564;8.112;2023-05-14T03:21:50;13.85;;;7.30;;
30010;SDS011;16851;53.564;8.112;2023-05-14T03:26:54;12.85;;;7.20;;
30010;SDS011;16851;53.564;8.112;2023-05-14T03:31:56;13.63;;;7.13;;
30010;SDS011;16851;53.564;8.112;2023-05-14T03:37:00;9.00;;;7.47;;
30010;SDS011;16851;53.564;8.112;2023-05-14T03:42:02;8.65;;;7.40;;
30010;SDS011;16851;53.564;8.112;2023-05-14T03:47:06;9.77;;;7.83;;
30010;SDS011;16851;53.564;8.112;2023-05-14T03:52:12;12.43;;;7.30;;
30010;SDS011;16851;53.564;8.112;2023-05-14T03:57:17;11.88;;;7.95;;
30010;SDS011;16851;53.564;8.112;2023-05-14T04:02:18;9.70;;;8.07;;
30010;SDS011;16851;53.564;8.112;2023-05-14T04:07:20;9.93;;;8.40;;
30010;SDS011;16851;53.564;8.112;2023-05-14T04:12:26;11.02;;;8.40;;
30010;SDS011;16851;53.564;8.112;2023-05-14T04:17:30;10.18;;;8.15;;
30010;SDS011;16851;53.564;8.112;2023-05-14T04:22:35;12.27;;;8.65;;
30010;SDS011;16851;53.564;8.112;2023-05-14T04:27:39;10.25;;;7.97;;
30010;SDS011;16851;53.564;8.112;2023-05-14T04:32:43;9.55;;;7.63;;
30010;SDS011;16851;53.564;8.112;2023-05-14T04:37:50;12.25;;;7.53;;
30010;SDS011;16851;53.564;8.112;2023-05-14T04:42:52;13.77;;;8.82;;
30010;SDS011;16851;53.564;8.112;2023-05-14T04:47:54;12.23;;;8.63;;
30010;SDS011;16851;53.564;8.112;2023-05-14T04:52:58;10.30;;;8.63;;
30010;SDS011;16851;53.564;8.112;2023-05-14T04:58:03;14.68;;;9.63;;
30010;SDS011;16851;53.564;8.112;2023-05-14T05:03:07;12.02;;;9.25;;
30010;SDS011;16851;53.564;8.112;2023-05-14T05:08:09;10.32;;;7.65;;
30010;SDS011;16851;53.564;8.112;2023-05-14T05:13:14;10.25;;;7.60;;
30010;SDS011;16851;53.564;8.112;2023-05-14T05:18:17;9.43;;;7.97;;
30010;SDS011;16851;53.564;8.112;2023-05-14T05:23:21;10.50;;;7.70;;
30010;SDS011;16851;53.564;8.112;2023-05-14T05:28:23;11.90;;;7.55;;
30010;SDS011;16851;53.564;8.112;2023-05-14T05:33:27;13.25;;;7.82;;
30010;SDS011;16851;53.564;8.112;2023-05-14T05:38:28;9.38;;;7.57;;
30010;SDS011;16851;53.564;8.112;2023-05-14T05:43:38;10.02;;;7.78;;
30010;SDS011;16851;53.564;8.112;2023-05-14T05:48:42;8.48;;;6.95;;
30010;SDS011;16851;53.564;8.112;2023-05-14T05:53:43;8.20;;;6.78;;
30010;SDS011;16851;53.564;8.112;2023-05-14T05:58:47;8.82;;;7.05;;
30010;SDS011;16851;53.564;8.112;2023-05-14T06:03:49;13.20;;;7.20;;
30010;SDS011;16851;53.564;8.112;2023-05-14T06:08:51;14.13;;;7.07;;
30010;SDS011;16851;53.564;8.112;2023-05-14T06:13:55;9.88;;;6.00;;
30010;SDS011;16851;53.564;8.112;2023-05-14T06:19:04;10.45;;;6.75;;
30010;SDS011;16851;53.564;8.112;2023-05-14T06:24:09;12.02;;;6.65;;
30010;SDS011;16851;53.564;8.112;2023-05-14T06:29:11;6.85;;;6.15;;
30010;SDS011;16851;53.564;8.112;2023-05-14T06:34:12;9.70;;;6.75;;
30010;SDS011;16851;53.564;8.112;2023-05-14T06:39:16;12.07;;;6.50;;
30010;SDS011;16851;53.564;8.112;2023-05-14T06:44:18;7.70;;;6.30;;
30010;SDS011;16851;53.564;8.112;2023-05-14T06:49:23;9.50;;;6.20;;
30010;SDS011;16851;53.564;8.112;2023-05-14T06:54:27;9.60;;;6.38;;
30010;SDS011;16851;53.564;8.112;2023-05-14T06:59:31;7.97;;;6.25;;
30010;SDS011;16851;53.564;8.112;2023-05-14T07:04:33;7.20;;;5.75;;
30010;SDS011;16851;53.564;8.112;2023-05-14T07:09:35;10.43;;;6.22;;
30010;SDS011;16851;53.564;8.112;2023-05-14T07:14:37;9.68;;;6.65;;
30010;SDS011;16851;53.564;8.112;2023-05-14T07:19:39;7.38;;;6.07;;
30010;SDS011;16851;53.564;8.112;2023-05-14T07:24:44;10.20;;;6.60;;
30010;SDS011;16851;53.564;8.112;2023-05-14T07:29:51;8.45;;;6.18;;
30010;SDS011;16851;53.564;8.112;2023-05-14T07:34:55;10.02;;;6.15;;
30010;SDS011;16851;53.564;8.112;2023-05-14T07:39:59;10.02;;;6.32;;
30010;SDS011;16851;53.564;8.112;2023-05-14T07:45:03;8.00;;;5.93;;
30010;SDS011;16851;53.564;8.112;2023-05-14T07:50:08;8.50;;;6.20;;
30010;SDS011;16851;53.564;8.112;2023-05-14T07:55:11;10.00;;;6.07;;
30010;SDS011;16851;53.564;8.112;2023-05-14T08:00:13;9.43;;;6.15;;
30010;SDS011;16851;53.564;8.112;2023-05-14T08:05:18;11.88;;;6.50;;
30010;SDS011;16851;53.564;8.112;2023-05-14T08:10:20;8.30;;;6.13;;
30010;SDS011;16851;53.564;8.112;2023-05-14T08:15:22;7.90;;;5.50;;
30010;SDS011;16851;53.564;8.112;2023-05-14T08:20:27;10.15;;;5.82;;
30010;SDS011;16851;53.564;8.112;2023-05-14T08:25:37;7.60;;;5.05;;
30010;SDS011;16851;53.564;8.112;2023-05-14T08:30:41;7.57;;;5.28;;
30010;SDS011;16851;53.564;8.112;2023-05-14T08:35:43;9.80;;;4.90;;
30010;SDS011;16851;53.564;8.112;2023-05-14T08:40:48;7.13;;;5.40;;
30010;SDS011;16851;53.564;8.112;2023-05-14T08:45:57;12.32;;;5.22;;
30010;SDS011;16851;53.564;8.112;2023-05-14T08:51:01;6.18;;;5.13;;
30010;SDS011;16851;53.564;8.112;2023-05-14T08:56:03;6.15;;;4.80;;
30010;SDS011;16851;53.564;8.112;2023-05-14T09:01:08;6.68;;;4.47;;
30010;SDS011;16851;53.564;8.112;2023-05-14T09:06:10;8.93;;;4.53;;
30010;SDS011;16851;53.564;8.112;2023-05-14T09:11:11;8.63;;;5.35;;
30010;SDS011;16851;53.564;8.112;2023-05-14T09:16:15;6.15;;;4.50;;
30010;SDS011;16851;53.564;8.112;2023-05-14T09:21:21;8.60;;;4.20;;
30010;SDS011;16851;53.564;8.112;2023-05-14T09:26:23;4.55;;;3.85;;
30010;SDS011;16851;53.564;8.112;2023-05-14T09:31:31;7.70;;;4.05;;
30010;SDS011;16851;53.564;8.112;2023-05-14T09:36:34;6.43;;;4.35;;
30010;SDS011;16851;53.564;8.112;2023-05-14T09:41:38;5.65;;;3.20;;
30010;SDS011;16851;53.564;8.112;2023-05-14T09:46:39;5.25;;;3.15;;
30010;SDS011;16851;53.564;8.112;2023-05-14T09:51:45;5.57;;;3.60;;
30010;SDS011;16851;53.564;8.112;2023-05-14T09:56:47;5.78;;;3.03;;
30010;SDS011;16851;53.564;8.112;2023-05-14T10:01:48;9.73;;;5.40;;
30010;SDS011;16851;53.564;8.112;2023-05-14T10:06:58;4.32;;;3.03;;
30010;SDS011;16851;53.564;8.112;2023-05-14T10:12:01;5.70;;;2.88;;
30010;SDS011;16851;53.564;8.112;2023-05-14T10:17:05;3.90;;;2.60;;
30010;SDS011;16851;53.564;8.112;2023-05-14T10:22:22;6.05;;;3.17;;
30010;SDS011;16851;53.564;8.112;2023-05-14T10:27:30;4.15;;;2.58;;
30010;SDS011;16851;53.564;8.112;2023-05-14T10:32:32;4.18;;;2.78;;
30010;SDS011;16851;53.564;8.112;2023-05-14T10:37:34;5.15;;;2.40;;
30010;SDS011;16851;53.564;8.112;2023-05-14T10:42:40;9.90;;;3.10;;
30010;SDS011;16851;53.564;8.112;2023-05-14T10:47:46;3.78;;;2.50;;
30010;SDS011;16851;53.564;8.112;2023-05-14T10:52:52;4.20;;;2.80;;
30010;SDS011;16851;53.564;8.112;2023-05-14T10:57:58;5.40;;;3.20;;
30010;SDS011;16851;53.564;8.112;2023-05-14T11:03:05;5.47;;;3.67;;
30010;SDS011;16851;53.564;8.112;2023-05-14T11:08:07;4.75;;;2.90;;
30010;SDS011;16851;53.564;8.112;2023-05-14T11:13:09;5.32;;;2.83;;
30010;SDS011;16851;53.564;8.112;2023-05-14T11:18:24;8.85;;;2.70;;
30010;SDS011;16851;53.564;8.112;2023-05-14T11:23:28;3.10;;;2.60;;
30010;SDS011;16851;53.564;8.112;2023-05-14T11:28:30;4.55;;;2.58;;
30010;SDS011;16851;53.564;8.112;2023-05-14T11:33:32;3.85;;;2.80;;
30010;SDS011;16851;53.564;8.112;2023-05-14T11:38:33;4.60;;;2.58;;
30010;SDS011;16851;53.564;8.112;2023-05-14T11:43:35;4.93;;;2.92;;
30010;SDS011;16851;53.564;8.112;2023-05-14T11:48:37;7.30;;;2.70;;
30010;SDS011;16851;53.564;8.112;2023-05-14T11:53:38;4.80;;;2.50;;
30010;SDS011;16851;53.564;8.112;2023-05-14T11:58:53;5.35;;;2.78;;
30010;SDS011;16851;53.564;8.112;2023-05-14T12:03:58;4.88;;;2.33;;
30010;SDS011;16851;53.564;8.112;2023-05-14T12:09:06;6.63;;;2.63;;
30010;SDS011;16851;53.564;8.112;2023-05-14T12:14:13;5.60;;;2.38;;
30010;SDS011;16851;53.564;8.112;2023-05-14T12:19:18;4.65;;;3.00;;
30010;SDS011;16851;53.564;8.112;2023-05-14T12:24:24;4.18;;;2.63;;
30010;SDS011;16851;53.564;8.112;2023-05-14T12:29:28;4.07;;;2.30;;
30010;SDS011;16851;53.564;8.112;2023-05-14T12:34:29;4.53;;;2.40;;
30010;SDS011;16851;53.564;8.112;2023-05-14T12:39:36;3.70;;;2.22;;
30010;SDS011;16851;53.564;8.112;2023-05-14T12:44:38;4.38;;;2.40;;
30010;SDS011;16851;53.564;8.112;2023-05-14T12:49:40;3.05;;;2.13;;
30010;SDS011;16851;53.564;8.112;2023-05-14T12:54:42;3.22;;;2.08;;
30010;SDS011;16851;53.564;8.112;2023-05-14T12:59:46;3.17;;;2.00;;
30010;SDS011;16851;53.564;8.112;2023-05-14T13:04:53;3.45;;;2.28;;
30010;SDS011;16851;53.564;8.112;2023-05-14T13:09:57;4.57;;;2.63;;
30010;SDS011;16851;53.564;8.112;2023-05-14T13:15:01;3.15;;;2.10;;
30010;SDS011;16851;53.564;8.112;2023-05-14T13:20:07;3.85;;;1.88;;
30010;SDS011;16851;53.564;8.112;2023-05-14T13:25:09;4.70;;;2.00;;
30010;SDS011;16851;53.564;8.112;2023-05-14T13:30:11;3.30;;;1.77;;
30010;SDS011;16851;53.564;8.112;2023-05-14T13:35:20;3.75;;;1.95;;
30010;SDS011;16851;53.564;8.112;2023-05-14T13:40:22;2.92;;;1.80;;
30010;SDS011;16851;53.564;8.112;2023-05-14T13:45:23;4.72;;;2.15;;
30010;SDS011;16851;53.564;8.112;2023-05-14T13:50:25;4.30;;;1.73;;
30010;SDS011;16851;53.564;8.112;2023-05-14T13:55:27;4.85;;;2.05;;
30010;SDS011;16851;53.564;8.112;2023-05-14T14:00:29;6.13;;;1.70;;
30010;SDS011;16851;53.564;8.112;2023-05-14T14:05:36;6.03;;;1.90;;
30010;SDS011;16851;53.564;8.112;2023-05-14T14:10:40;9.63;;;2.75;;
30010;SDS011;16851;53.564;8.112;2023-05-14T14:15:45;7.20;;;2.70;;
30010;SDS011;16851;53.564;8.112;2023-05-14T14:20:47;4.97;;;3.10;;
30010;SDS011;16851;53.564;8.112;2023-05-14T14:25:49;5.85;;;2.88;;
30010;SDS011;16851;53.564;8.112;2023-05-14T14:30:53;4.18;;;2.40;;
30010;SDS011;16851;53.564;8.112;2023-05-14T14:35:57;6.10;;;2.65;;
30010;SDS011;16851;53.564;8.112;2023-05-14T14:40:59;6.55;;;1.90;;
30010;SDS011;16851;53.564;8.112;2023-05-14T14:46:03;3.80;;;1.95;;
30010;SDS011;16851;53.564;8.112;2023-05-14T14:51:12;3.67;;;2.28;;
30010;SDS011;16851;53.564;8.112;2023-05-14T14:56:14;2.83;;;2.05;;
30010;SDS011;16851;53.564;8.112;2023-05-14T15:01:21;4.57;;;2.38;;
30010;SDS011;16851;53.564;8.112;2023-05-14T15:06:27;4.97;;;2.80;;
30010;SDS011;16851;53.564;8.112;2023-05-14T15:11:29;3.35;;;2.10;;
30010;SDS011;16851;53.564;8.112;2023-05-14T15:16:33;3.17;;;2.20;;
30010;SDS011;16851;53.564;8.112;2023-05-14T15:21:35;4.30;;;2.22;;
30010;SDS011;16851;53.564;8.112;2023-05-14T15:26:37;3.03;;;2.10;;
30010;SDS011;16851;53.564;8.112;2023-05-14T15:31:41;3.45;;;2.13;;
30010;SDS011;16851;53.564;8.112;2023-05-14T15:36:45;8.27;;;2.13;;
30010;SDS011;16851;53.564;8.112;2023-05-14T15:41:49;6.95;;;2.30;;
30010;SDS011;16851;53.564;8.112;2023-05-14T15:46:55;3.30;;;2.17;;
30010;SDS011;16851;53.564;8.112;2023-05-14T15:51:59;6.93;;;2.38;;
30010;SDS011;16851;53.564;8.112;2023-05-14T15:57:05;2.97;;;2.20;;
30010;SDS011;16851;53.564;8.112;2023-05-14T16:02:07;6.57;;;2.20;;
30010;SDS011;16851;53.564;8.112;2023-05-14T16:07:11;6.93;;;2.40;;
30010;SDS011;16851;53.564;8.112;2023-05-14T16:12:16;4.70;;;2.58;;
30010;SDS011;16851;53.564;8.112;2023-05-14T16:17:17;4.82;;;2.70;;
30010;SDS011;16851;53.564;8.112;2023-05-14T16:22:24;4.45;;;2.97;;
30010;SDS011;16851;53.564;8.112;2023-05-14T16:27:32;4.25;;;2.63;;
30010;SDS011;16851;53.564;8.112;2023-05-14T16:32:34;6.43;;;2.40;;
30010;SDS011;16851;53.564;8.112;2023-05-14T16:37:35;3.50;;;2.28;;
30010;SDS011;16851;53.564;8.112;2023-05-14T16:42:37;6.90;;;3.03;;
30010;SDS011;16851;53.564;8.112;2023-05-14T16:47:39;5.07;;;2.70;;
30010;SDS011;16851;53.564;8.112;2023-05-14T16:52:46;4.43;;;3.00;;
30010;SDS011;16851;53.564;8.112;2023-05-14T16:57:50;6.78;;;2.72;;
30010;SDS011;16851;53.564;8.112;2023-05-14T17:02:52;5.45;;;3.00;;
30010;SDS011;16851;53.564;8.112;2023-05-14T17:07:56;6.40;;;3.40;;
30010;SDS011;16851;53.564;8.112;2023-05-14T17:12:59;4.57;;;3.30;;
30010;SDS011;16851;53.564;8.112;2023-05-14T17:18:01;5.03;;;3.63;;
30010;SDS011;16851;53.564;8.112;2023-05-14T17:23:12;11.48;;;3.92;;
30010;SDS011;16851;53.564;8.112;2023-05-14T17:28:14;11.52;;;3.85;;
30010;SDS011;16851;53.564;8.112;2023-05-14T17:33:18;5.63;;;3.42;;
30010;SDS011;16851;53.564;8.112;2023-05-14T17:38:20;5.15;;;3.50;;
30010;SDS011;16851;53.564;8.112;2023-05-14T17:43:21;7.95;;;3.20;;
30010;SDS011;16851;53.564;8.112;2023-05-14T17:48:23;4.55;;;3.40;;
30010;SDS011;16851;53.564;8.112;2023-05-14T17:53:28;5.32;;;3.40;;
30010;SDS011;16851;53.564;8.112;2023-05-14T17:58:29;8.25;;;4.10;;
30010;SDS011;16851;53.564;8.112;2023-05-14T18:03:34;6.65;;;4.25;;
30010;SDS011;16851;53.564;8.112;2023-05-14T18:08:38;5.05;;;3.85;;
30010;SDS011;16851;53.564;8.112;2023-05-14T18:13:43;7.80;;;4.43;;
30010;SDS011;16851;53.564;8.112;2023-05-14T18:18:45;4.60;;;3.53;;
30010;SDS011;16851;53.564;8.112;2023-05-14T18:23:47;6.28;;;4.05;;
30010;SDS011;16851;53.564;8.112;2023-05-14T18:28:52;7.32;;;4.03;;
30010;SDS011;16851;53.564;8.112;2023-05-14T18:33:56;7.40;;;5.20;;
30010;SDS011;16851;53.564;8.112;2023-05-14T18:39:00;6.65;;;5.18;;
30010;SDS011;16851;53.564;8.112;2023-05-14T18:44:08;7.32;;;5.28;;
30010;SDS011;16851;53.564;8.112;2023-05-14T18:49:14;8.05;;;4.85;;
30010;SDS011;16851;53.564;8.112;2023-05-14T18:54:24;6.85;;;4.25;;
30010;SDS011;16851;53.564;8.112;2023-05-14T18:59:26;9.52;;;4.00;;
30010;SDS011;16851;53.564;8.112;2023-05-14T19:04:31;6.07;;;3.73;;
30010;SDS011;16851;53.564;8.112;2023-05-14T19:09:34;8.73;;;3.95;;
30010;SDS011;16851;53.564;8.112;2023-05-14T19:14:39;8.23;;;3.45;;
30010;SDS011;16851;53.564;8.112;2023-05-14T19:19:53;5.80;;;3.00;;
30010;SDS011;16851;53.564;8.112;2023-05-14T19:25:02;7.75;;;3.60;;
30010;SDS011;16851;53.564;8.112;2023-05-14T19:30:06;6.28;;;3.55;;
30010;SDS011;16851;53.564;8.112;2023-05-14T19:35:11;6.13;;;3.22;;
30010;SDS011;16851;53.564;8.112;2023-05-14T19:40:17;4.85;;;3.70;;
30010;SDS011;16851;53.564;8.112;2023-05-14T19:45:19;7.63;;;3.40;;
30010;SDS011;16851;53.564;8.112;2023-05-14T19:50:21;5.40;;;3.13;;
30010;SDS011;16851;53.564;8.112;2023-05-14T19:55:25;8.82;;;3.40;;
30010;SDS011;16851;53.564;8.112;2023-05-14T20:00:29;5.88;;;3.53;;
30010;SDS011;16851;53.564;8.112;2023-05-14T20:05:31;6.78;;;3.92;;
30010;SDS011;16851;53.564;8.112;2023-05-14T20:10:34;6.55;;;3.88;;
30010;SDS011;16851;53.564;8.112;2023-05-14T20:15:39;7.18;;;3.65;;
30010;SDS011;16851;53.564;8.112;2023-05-14T20:20:43;5.35;;;3.65;;
30010;SDS011;16851;53.564;8.112;2023-05-14T20:25:45;5.15;;;3.40;;
30010;SDS011;16851;53.564;8.112;2023-05-14T20:30:47;5.30;;;3.40;;
30010;SDS011;16851;53.564;8.112;2023-05-14T20:35:55;7.07;;;4.10;;
30010;SDS011;16851;53.564;8.112;2023-05-14T20:40:57;6.18;;;3.65;;
30010;SDS011;16851;53.564;8.112;2023-05-14T20:45:58;13.07;;;4.68;;
30010;SDS011;16851;53.564;8.112;2023-05-14T20:51:01;6.68;;;3.90;;
30010;SDS011;16851;53.564;8.112;2023-05-14T20:56:05;10.15;;;4.68;;
30010;SDS011;16851;53.564;8.112;2023-05-14T21:01:08;8.68;;;3.42;;
30010;SDS011;16851;53.564;8.112;2023-05-14T21:06:12;8.63;;;3.80;;
30010;SDS011;16851;53.564;8.112;2023-05-14T21:11:13;4.47;;;3.40;;
30010;SDS011;16851;53.564;8.112;2023-05-14T21:16:15;5.18;;;3.72;;
30010;SDS011;16851;53.564;8.112;2023-05-14T21:21:20;5.35;;;3.88;;
30010;SDS011;16851;53.564;8.112;2023-05-14T21:26:24;7.22;;;4.57;;
30010;SDS011;16851;53.564;8.112;2023-05-14T21:31:29;8.02;;;4.75;;
30010;SDS011;16851;53.564;8.112;2023-05-14T21:36:33;5.90;;;5.07;;
30010;SDS011;16851;53.564;8.112;2023-05-14T21:41:39;6.32;;;5.18;;
30010;SDS011;16851;53.564;8.112;2023-05-14T21:46:41;7.30;;;6.43;;
30010;SDS011;16851;53.564;8.112;2023-05-14T21:51:45;6.85;;;6.10;;
30010;SDS011;16851;53.564;8.112;2023-05-14T21:56:55;8.38;;;6.60;;
30010;SDS011;16851;53.564;8.112;2023-05-14T22:01:59;10.65;;;7.03;;
30010;SDS011;16851;53.564;8.112;2023-05-14T22:07:04;10.77;;;6.80;;
30010;SDS011;16851;53.564;8.112;2023-05-14T22:12:09;8.27;;;6.03;;
30010;SDS011;16851;53.564;8.112;2023-05-14T22:17:13;9.88;;;6.50;;
30010;SDS011;16851;53.564;8.112;2023-05-14T22:22:14;7.00;;;6.20;;
30010;SDS011;16851;53.564;8.112;2023-05-14T22:27:16;7.88;;;6.30;;
30010;SDS011;16851;53.564;8.112;2023-05-14T22:32:20;6.95;;;6.25;;
30010;SDS011;16851;53.564;8.112;2023-05-14T22:37:27;12.65;;;6.82;;
30010;SDS011;16851;53.564;8.112;2023-05-14T22:42:29;9.70;;;6.55;;
30010;SDS011;16851;53.564;8.112;2023-05-14T22:47:33;8.48;;;6.85;;
30010;SDS011;16851;53.564;8.112;2023-05-14T22:52:36;11.65;;;9.50;;
30010;SDS011;16851;53.564;8.112;2023-05-14T22:57:39;10.27;;;9.23;;
30010;SDS011;16851;53.564;8.112;2023-05-14T23:02:43;13.18;;;11.43;;
30010;SDS011;16851;53.564;8.112;2023-05-14T23:07:44;14.70;;;11.05;;
30010;SDS011;16851;53.564;8.112;2023-05-14T23:12:46;14.88;;;13.38;;
30010;SDS011;16851;53.564;8.112;2023-05-14T23:17:50;12.70;;;11.43;;
30010;SDS011;16851;53.564;8.112;2023-05-14T23:22:54;15.32;;;13.73;;
30010;SDS011;16851;53.564;8.112;2023-05-14T23:27:58;24.25;;;20.02;;
30010;SDS011;16851;53.564;8.112;2023-05-14T23:33:00;23.35;;;20.02;;
30010;SDS011;16851;53.564;8.112;2023-05-14T23:38:03;25.58;;;22.98;;
30010;SDS011;16851;53.564;8.112;2023-05-14T23:43:05;24.50;;;21.33;;
30010;SDS011;16851;53.564;8.112;2023-05-14T23:48:07;27.70;;;24.80;;
30010;SDS011;16851;53.564;8.112;2023-05-14T23:53:11;30.02;;;26.77;;
30010;SDS011;16851;53.564;8.112;2023-05-14T23:58:15;31.80;;;28.60;;
